Time;durP1;ratioP1;P1;durP2;ratioP2;P2;SDS_P1;SDS_P2;PMS_P1;PMS_P2;Temp;Humidity;BMP_temperature;BMP_pressure;BME280_temperature;BME280_humidity;BME280_pressure;Samples;Min_cycle;Max_cycle;Signal;HPM_P1;HPM_P2
2022/09/06 00:00:53;;;;;;;3.90;1.45;;;24.40;90.70;;;;;;5034244;28;20029;-66
2022/09/06 00:03:19;;;;;;;1.95;1.52;;;24.20;90.90;;;;;;5033510;28;20356;-63
2022/09/06 00:05:44;;;;;;;1.83;1.60;;;24.10;91.00;;;;;;5033614;28;20140;-64
2022/09/06 00:08:10;;;;;;;1.75;1.27;;;24.20;90.80;;;;;;5044404;28;20112;-62
2022/09/06 00:10:36;;;;;;;2.33;1.63;;;24.20;90.80;;;;;;5033127;28;20152;-63
2022/09/06 00:13:07;;;;;;;6.28;1.63;;;24.30;90.70;;;;;;5031519;28;20450;-66
2022/09/06 00:15:34;;;;;;;3.00;1.67;;;24.20;90.80;;;;;;5033452;28;20025;-66
2022/09/06 00:18:02;;;;;;;3.35;2.00;;;24.30;90.50;;;;;;5033464;28;20032;-67
2022/09/06 00:20:29;;;;;;;4.35;1.63;;;24.50;90.30;;;;;;5033588;28;20378;-64
2022/09/06 00:22:59;;;;;;;2.00;1.65;;;24.50;90.30;;;;;;5033453;28;20021;-69
2022/09/06 00:25:26;;;;;;;3.35;1.60;;;24.30;90.50;;;;;;5033513;28;20108;-64
2022/09/06 00:28:04;;;;;;;2.85;1.60;;;24.30;90.50;;;;;;5032448;28;20033;-64
2022/09/06 00:30:31;;;;;;;5.90;1.80;;;24.40;90.60;;;;;;5033164;28;20033;-66
2022/09/06 00:32:56;;;;;;;2.42;1.70;;;24.30;90.50;;;;;;5033343;28;20044;-63
2022/09/06 00:35:23;;;;;;;3.55;2.00;;;24.20;90.60;;;;;;5033658;28;20083;-69
2022/09/06 00:37:50;;;;;;;3.67;2.13;;;24.20;90.80;;;;;;5032928;28;20506;-63
2022/09/06 00:40:16;;;;;;;2.97;2.10;;;24.00;90.80;;;;;;5033185;28;20030;-67
2022/09/06 00:42:42;;;;;;;2.10;1.90;;;24.00;90.80;;;;;;5033186;28;20030;-67
2022/09/06 00:45:10;;;;;;;2.83;1.90;;;24.00;90.90;;;;;;5033341;28;20030;-64
2022/09/06 00:47:39;;;;;;;2.60;1.80;;;24.20;90.60;;;;;;5032828;28;20057;-64
2022/09/06 00:50:05;;;;;;;2.90;2.00;;;24.00;90.60;;;;;;5033216;28;20029;-68
2022/09/06 00:52:31;;;;;;;3.13;1.95;;;23.90;90.70;;;;;;5033108;28;20124;-62
2022/09/06 00:54:57;;;;;;;4.03;2.53;;;23.70;90.80;;;;;;5033258;28;20083;-66
2022/09/06 00:57:27;;;;;;;2.88;2.10;;;23.80;90.90;;;;;;5032916;28;20032;-63
2022/09/06 00:59:54;;;;;;;3.58;2.13;;;23.80;90.80;;;;;;5033302;28;20092;-68
2022/09/06 01:02:20;;;;;;;2.53;2.08;;;24.10;90.50;;;;;;5032516;28;20352;-62
2022/09/06 01:04:48;;;;;;;4.68;2.10;;;24.10;90.30;;;;;;5033028;28;20087;-67
2022/09/06 01:07:34;;;;;;;2.45;2.10;;;24.30;90.20;;;;;;5031499;28;20018;-63
2022/09/06 01:10:24;;;;;;;4.85;2.78;;;24.30;90.10;;;;;;5032767;28;20101;-64
2022/09/06 01:13:11;;;;;;;5.05;2.53;;;24.30;90.20;;;;;;5032813;28;20025;-62
2022/09/06 01:15:44;;;;;;;2.47;1.80;;;24.20;90.20;;;;;;5032614;28;20018;-62
2022/09/06 01:18:36;;;;;;;3.63;1.92;;;24.10;90.20;;;;;;5031714;28;20029;-69
2022/09/06 01:21:25;;;;;;;6.37;2.63;;;24.00;90.50;;;;;;5031731;28;20033;-64
2022/09/06 01:24:24;;;;;;;4.15;2.25;;;24.10;90.40;;;;;;5032541;28;20038;-67
2022/09/06 01:26:58;;;;;;;4.03;2.50;;;24.30;90.10;;;;;;5022160;28;20037;-67
2022/09/06 01:29:35;;;;;;;2.78;2.20;;;24.40;90.00;;;;;;5032415;28;20030;-70
2022/09/06 01:32:13;;;;;;;3.65;2.40;;;24.30;90.20;;;;;;5032633;28;20030;-63
2022/09/06 01:34:46;;;;;;;3.88;2.58;;;24.30;90.30;;;;;;5032674;28;20056;-62
2022/09/06 01:37:15;;;;;;;5.47;2.92;;;24.30;90.30;;;;;;5032515;28;20036;-66
2022/09/06 01:39:41;;;;;;;4.32;2.50;;;24.30;90.50;;;;;;5032333;28;20128;-64
2022/09/06 01:42:22;;;;;;;3.50;2.08;;;24.30;90.60;;;;;;5032638;28;20105;-64
2022/09/06 01:44:53;;;;;;;3.05;2.50;;;24.30;90.70;;;;;;5032342;28;20491;-62
2022/09/06 01:47:21;;;;;;;4.38;2.28;;;24.30;90.70;;;;;;5032526;28;20018;-63
2022/09/06 01:50:06;;;;;;;4.22;2.80;;;24.20;90.90;;;;;;5030967;28;20379;-65
2022/09/06 01:52:59;;;;;;;3.28;2.60;;;24.00;90.80;;;;;;5031646;28;20037;-69
2022/09/06 01:56:03;;;;;;;3.75;2.58;;;23.70;91.20;;;;;;5036354;28;20026;-65
2022/09/06 01:58:59;;;;;;;2.95;2.50;;;24.00;90.70;;;;;;5004999;28;20043;-63
2022/09/06 02:01:43;;;;;;;3.70;2.80;;;24.10;90.80;;;;;;5036287;28;20518;-64
2022/09/06 02:04:27;;;;;;;5.07;2.90;;;24.10;90.60;;;;;;5035993;28;20395;-66
2022/09/06 02:06:59;;;;;;;3.10;2.72;;;24.10;90.80;;;;;;5036369;28;20022;-67
2022/09/06 02:09:30;;;;;;;6.18;2.83;;;24.10;90.90;;;;;;5035870;28;20475;-68
2022/09/06 02:11:58;;;;;;;3.03;2.70;;;24.10;90.90;;;;;;5036055;28;20017;-63
2022/09/06 02:14:42;;;;;;;3.33;2.50;;;24.10;90.90;;;;;;5035605;28;20033;-63
2022/09/06 02:17:12;;;;;;;4.47;2.88;;;24.10;90.90;;;;;;5036039;28;20028;-64
2022/09/06 02:20:10;;;;;;;6.38;3.00;;;24.00;91.20;;;;;;5036003;28;20137;-63
2022/09/06 02:22:40;;;;;;;3.72;2.70;;;24.00;91.30;;;;;;5035922;28;20091;-62
2022/09/06 02:25:09;;;;;;;4.00;2.78;;;24.00;90.90;;;;;;5035598;28;20470;-64
2022/09/06 02:27:36;;;;;;;4.40;2.50;;;24.00;91.00;;;;;;5035601;28;20025;-63
2022/09/06 02:30:03;;;;;;;3.17;2.60;;;24.00;91.00;;;;;;5035791;28;20033;-66
2022/09/06 02:32:32;;;;;;;3.50;2.95;;;24.00;91.00;;;;;;5035665;28;20021;-62
2022/09/06 02:34:58;;;;;;;4.93;3.03;;;24.10;90.90;;;;;;5035599;28;20026;-66
2022/09/06 02:37:27;;;;;;;3.10;2.47;;;24.00;91.10;;;;;;5035694;28;20093;-63
2022/09/06 02:39:56;;;;;;;5.70;2.97;;;24.00;91.10;;;;;;5035411;28;20029;-62
2022/09/06 02:42:23;;;;;;;3.50;2.25;;;24.00;91.10;;;;;;5035444;28;20091;-64
2022/09/06 02:44:48;;;;;;;4.55;2.65;;;24.00;91.00;;;;;;5035248;28;20045;-63
2022/09/06 02:47:15;;;;;;;4.63;2.70;;;24.00;90.90;;;;;;5035462;28;20029;-62
2022/09/06 02:49:41;;;;;;;4.45;2.38;;;23.90;90.80;;;;;;5035203;28;20028;-62
2022/09/06 02:52:06;;;;;;;4.38;2.42;;;23.90;90.90;;;;;;5035296;28;20021;-66
2022/09/06 02:54:32;;;;;;;4.20;2.67;;;24.00;91.00;;;;;;5035039;28;20032;-63
2022/09/06 02:56:57;;;;;;;5.03;2.60;;;24.00;90.90;;;;;;5035043;28;20032;-62
2022/09/06 02:59:23;;;;;;;4.60;3.05;;;23.80;91.00;;;;;;5035206;28;20039;-63
2022/09/06 03:01:48;;;;;;;3.95;2.58;;;23.80;91.00;;;;;;5035117;28;20537;-65
2022/09/06 03:04:14;;;;;;;4.40;3.03;;;23.80;91.00;;;;;;5033988;28;20034;-63
2022/09/06 03:06:39;;;;;;;4.57;3.10;;;23.80;91.00;;;;;;5035101;28;20021;-62
2022/09/06 03:09:05;;;;;;;6.00;3.30;;;23.80;91.00;;;;;;5034917;28;20033;-62
2022/09/06 03:11:30;;;;;;;3.20;2.45;;;23.80;91.00;;;;;;5034680;28;20056;-63
2022/09/06 03:13:56;;;;;;;2.58;2.38;;;23.80;91.00;;;;;;5034904;28;20030;-63
2022/09/06 03:16:22;;;;;;;2.92;2.63;;;23.70;90.70;;;;;;5036603;28;20021;-64
2022/09/06 03:18:47;;;;;;;3.42;2.97;;;23.80;90.80;;;;;;5036720;28;20502;-66
2022/09/06 03:21:13;;;;;;;5.28;2.75;;;23.70;90.80;;;;;;5037183;28;20032;-63
2022/09/06 03:23:39;;;;;;;4.43;2.88;;;23.70;90.80;;;;;;5036631;28;20030;-68
2022/09/06 03:26:05;;;;;;;3.65;2.90;;;23.60;90.80;;;;;;5034444;28;20439;-72
2022/09/06 03:28:32;;;;;;;3.65;2.72;;;23.70;90.80;;;;;;5034648;28;20143;-72
2022/09/06 03:30:57;;;;;;;3.33;2.97;;;23.70;90.70;;;;;;5034448;28;20498;-72
2022/09/06 03:33:23;;;;;;;6.50;2.88;;;23.60;90.70;;;;;;5034687;28;20040;-70
2022/09/06 03:35:53;;;;;;;3.22;2.60;;;23.60;90.80;;;;;;5034293;28;20021;-66
2022/09/06 03:38:20;;;;;;;3.50;2.85;;;23.50;91.00;;;;;;5034396;28;20053;-71
2022/09/06 03:40:48;;;;;;;2.85;2.65;;;23.60;90.90;;;;;;5033901;28;20045;-72
2022/09/06 03:43:16;;;;;;;5.20;3.15;;;23.60;90.80;;;;;;5034476;28;20117;-72
2022/09/06 03:45:53;;;;;;;5.18;2.92;;;23.60;90.90;;;;;;5034271;28;20422;-72
2022/09/06 03:48:21;;;;;;;5.78;2.70;;;23.50;90.80;;;;;;5034331;28;20060;-69
2022/09/06 03:50:49;;;;;;;4.57;2.95;;;23.50;90.90;;;;;;5033787;28;20370;-71
2022/09/06 03:53:16;;;;;;;4.43;2.88;;;23.40;91.00;;;;;;5034444;28;20026;-71
2022/09/06 03:55:47;;;;;;;3.95;3.08;;;23.40;91.10;;;;;;5033632;28;20025;-64
2022/09/06 03:58:13;;;;;;;4.68;3.00;;;23.40;91.10;;;;;;5032836;28;20465;-70
2022/09/06 04:00:39;;;;;;;5.20;2.88;;;23.60;90.90;;;;;;5034051;28;20108;-72
2022/09/06 04:03:05;;;;;;;5.88;2.97;;;23.40;90.90;;;;;;5033857;28;20120;-71
2022/09/06 04:05:31;;;;;;;3.80;3.15;;;23.60;90.80;;;;;;5033985;28;20021;-68
2022/09/06 04:07:56;;;;;;;5.22;3.20;;;23.60;90.90;;;;;;5033843;28;20463;-71
2022/09/06 04:10:22;;;;;;;3.90;2.78;;;23.50;90.80;;;;;;5033572;28;20032;-71
2022/09/06 04:12:47;;;;;;;3.97;3.53;;;23.40;90.90;;;;;;5033782;28;20104;-70
2022/09/06 04:15:13;;;;;;;7.18;3.35;;;23.40;90.70;;;;;;5033435;28;20386;-72
2022/09/06 04:17:42;;;;;;;4.35;3.40;;;23.40;90.90;;;;;;5033607;28;20459;-67
2022/09/06 04:20:09;;;;;;;5.30;3.72;;;23.40;91.00;;;;;;5033685;28;20029;-71
2022/09/06 04:22:34;;;;;;;3.45;3.15;;;23.40;90.80;;;;;;5033699;28;20022;-65
2022/09/06 04:25:00;;;;;;;4.85;3.67;;;23.30;90.90;;;;;;5033280;28;20033;-65
2022/09/06 04:27:25;;;;;;;5.00;3.67;;;23.40;90.90;;;;;;5033863;28;20366;-70
2022/09/06 04:29:51;;;;;;;7.93;4.20;;;23.40;90.90;;;;;;5033363;28;20026;-63
2022/09/06 04:32:16;;;;;;;10.93;9.15;;;23.40;90.80;;;;;;5033256;28;20033;-65
2022/09/06 04:34:42;;;;;;;5.70;4.05;;;23.40;90.90;;;;;;5033621;28;20021;-63
2022/09/06 04:37:07;;;;;;;4.25;3.85;;;23.30;90.80;;;;;;5033489;28;20475;-66
2022/09/06 04:39:33;;;;;;;6.28;4.15;;;23.40;90.80;;;;;;5032845;28;20495;-64
2022/09/06 04:41:58;;;;;;;5.28;4.35;;;23.40;90.90;;;;;;5033225;28;20029;-65
2022/09/06 04:44:24;;;;;;;23.77;6.68;;;23.40;91.00;;;;;;5033654;28;20084;-68
2022/09/06 04:46:50;;;;;;;5.00;4.05;;;23.50;91.00;;;;;;5033060;28;20026;-65
2022/09/06 04:49:15;;;;;;;9.07;4.38;;;23.20;91.20;;;;;;5033132;28;20067;-64
2022/09/06 04:51:41;;;;;;;5.65;4.43;;;23.20;91.00;;;;;;5033022;28;20028;-64
2022/09/06 04:54:06;;;;;;;7.15;4.28;;;23.20;90.90;;;;;;5032958;28;20030;-66
2022/09/06 04:56:32;;;;;;;6.00;4.18;;;23.20;90.80;;;;;;5032860;28;20021;-68
2022/09/06 04:58:57;;;;;;;5.32;3.90;;;23.20;90.90;;;;;;5033167;28;20375;-69
2022/09/06 05:01:25;;;;;;;5.18;3.90;;;23.30;90.80;;;;;;5037795;28;20029;-68
2022/09/06 05:03:50;;;;;;;6.60;4.57;;;23.30;90.80;;;;;;5041590;28;20112;-71
2022/09/06 05:06:21;;;;;;;5.15;4.10;;;23.30;90.80;;;;;;5031637;28;20486;-66
2022/09/06 05:08:48;;;;;;;9.75;4.10;;;23.30;90.80;;;;;;5031523;28;20037;-62
2022/09/06 05:11:14;;;;;;;6.93;4.75;;;23.30;90.60;;;;;;5032993;28;20024;-65
2022/09/06 05:13:39;;;;;;;5.07;4.50;;;23.30;90.70;;;;;;5032581;28;20487;-71
2022/09/06 05:16:07;;;;;;;6.82;4.15;;;23.30;90.80;;;;;;5032866;28;20021;-65
2022/09/06 05:18:33;;;;;;;4.85;3.67;;;23.30;90.90;;;;;;5032708;28;20387;-66
2022/09/06 05:20:58;;;;;;;8.30;5.13;;;23.30;90.90;;;;;;5032740;28;20045;-68
2022/09/06 05:23:25;;;;;;;8.10;4.82;;;23.30;90.90;;;;;;5032487;28;20099;-70
2022/09/06 05:25:51;;;;;;;5.97;5.03;;;23.30;90.80;;;;;;5032699;28;20422;-70
2022/09/06 05:28:17;;;;;;;6.05;5.45;;;23.30;90.80;;;;;;5033084;28;20471;-69
2022/09/06 05:30:43;;;;;;;31.95;9.75;;;23.40;90.70;;;;;;5035913;28;20156;-71
2022/09/06 05:33:09;;;;;;;52.13;15.90;;;23.40;90.70;;;;;;5041916;28;20092;-71
2022/09/06 05:35:35;;;;;;;78.80;20.15;;;23.50;90.70;;;;;;5038391;28;20033;-67
2022/09/06 05:38:01;;;;;;;44.58;13.27;;;23.40;90.60;;;;;;5043209;28;20028;-63
2022/09/06 05:40:26;;;;;;;21.20;11.55;;;23.60;90.50;;;;;;5056498;28;20043;-63
2022/09/06 05:42:52;;;;;;;13.40;9.70;;;23.40;90.60;;;;;;5045903;28;20056;-63
2022/09/06 05:45:18;;;;;;;12.55;10.10;;;23.40;90.70;;;;;;5051123;28;20037;-63
2022/09/06 05:47:44;;;;;;;10.63;8.68;;;23.30;90.70;;;;;;5040567;28;20363;-65
2022/09/06 05:50:09;;;;;;;13.75;9.63;;;23.30;90.70;;;;;;5041464;28;20466;-63
2022/09/06 05:52:35;;;;;;;12.05;9.02;;;23.30;90.90;;;;;;5042979;28;20025;-62
2022/09/06 05:55:03;;;;;;;9.05;7.38;;;23.30;91.20;;;;;;5045905;28;20533;-61
2022/09/06 05:57:28;;;;;;;9.73;7.13;;;23.30;91.30;;;;;;5040074;28;20375;-64
2022/09/06 05:59:54;;;;;;;9.02;6.82;;;23.20;91.40;;;;;;5042043;28;20470;-61
2022/09/06 06:02:20;;;;;;;7.63;6.05;;;23.20;91.50;;;;;;5043719;28;20440;-62
2022/09/06 06:04:47;;;;;;;7.53;5.30;;;23.20;91.40;;;;;;5040368;28;20025;-65
2022/09/06 06:07:13;;;;;;;6.13;5.25;;;23.20;91.40;;;;;;5051276;28;20042;-69
2022/09/06 06:09:40;;;;;;;7.75;5.97;;;23.30;91.50;;;;;;5046888;28;20038;-62
2022/09/06 06:12:06;;;;;;;9.48;4.55;;;23.30;91.50;;;;;;5047252;28;20055;-62
2022/09/06 06:14:32;;;;;;;6.53;5.82;;;23.30;91.50;;;;;;5049728;28;20037;-62
2022/09/06 06:16:58;;;;;;;14.75;5.35;;;23.30;91.40;;;;;;5043416;28;20079;-61
2022/09/06 06:19:25;;;;;;;6.63;4.85;;;23.30;91.50;;;;;;5038565;28;20021;-63
2022/09/06 06:21:51;;;;;;;6.18;4.82;;;23.40;91.50;;;;;;5044622;28;20032;-61
2022/09/06 06:24:17;;;;;;;9.77;5.32;;;23.40;91.50;;;;;;5037384;28;20033;-62
2022/09/06 06:26:43;;;;;;;8.68;4.50;;;23.40;91.50;;;;;;5035546;28;20022;-62
2022/09/06 06:29:08;;;;;;;9.80;3.97;;;23.40;91.40;;;;;;5041704;28;20022;-62
2022/09/06 06:31:35;;;;;;;7.05;3.53;;;23.50;91.50;;;;;;5042422;28;20017;-62
2022/09/06 06:34:02;;;;;;;7.63;3.53;;;23.50;91.40;;;;;;5054948;28;20111;-62
2022/09/06 06:36:30;;;;;;;8.23;3.60;;;23.50;91.50;;;;;;5054468;28;20036;-63
2022/09/06 06:38:57;;;;;;;8.30;3.72;;;23.50;91.40;;;;;;5045045;28;20037;-61
2022/09/06 06:41:24;;;;;;;7.90;4.00;;;23.60;91.40;;;;;;5052589;28;20024;-63
2022/09/06 06:43:51;;;;;;;6.03;3.20;;;23.60;91.40;;;;;;5038699;28;20037;-64
2022/09/06 06:46:18;;;;;;;10.75;3.08;;;23.60;91.30;;;;;;5037075;28;20021;-61
2022/09/06 06:48:45;;;;;;;7.22;3.08;;;23.60;91.30;;;;;;5040803;28;20029;-61
2022/09/06 06:51:13;;;;;;;8.80;3.20;;;23.70;91.30;;;;;;5040049;28;20034;-61
2022/09/06 06:53:38;;;;;;;8.30;3.60;;;23.70;91.20;;;;;;5047714;28;20101;-63
2022/09/06 06:56:14;;;;;;;5.85;3.47;;;23.70;91.30;;;;;;5035016;28;20140;-62
2022/09/06 06:58:40;;;;;;;7.50;3.85;;;23.70;91.20;;;;;;5036814;28;20487;-62
2022/09/06 07:01:05;;;;;;;7.45;4.10;;;23.70;91.10;;;;;;5038138;28;20029;-64
2022/09/06 07:03:31;;;;;;;6.80;3.72;;;23.70;91.20;;;;;;5035791;28;20084;-63
2022/09/06 07:05:56;;;;;;;6.20;4.45;;;23.70;91.10;;;;;;5041725;28;20029;-62
2022/09/06 07:08:22;;;;;;;6.75;4.40;;;23.80;91.10;;;;;;5036523;28;20029;-64
2022/09/06 07:10:47;;;;;;;6.30;3.80;;;23.80;91.10;;;;;;5054726;28;20099;-61
2022/09/06 07:13:13;;;;;;;4.88;3.08;;;23.80;91.00;;;;;;5048841;28;20021;-62
2022/09/06 07:15:38;;;;;;;5.82;3.58;;;23.80;90.90;;;;;;5054259;28;20429;-62
2022/09/06 07:18:04;;;;;;;5.63;3.50;;;23.80;91.10;;;;;;5054539;28;20462;-61
2022/09/06 07:20:30;;;;;;;6.72;3.95;;;23.90;90.80;;;;;;5053906;28;20044;-63
2022/09/06 07:23:00;;;;;;;6.90;4.03;;;23.90;90.80;;;;;;5048071;28;20478;-71
2022/09/06 07:25:27;;;;;;;5.72;3.38;;;23.90;90.70;;;;;;5042151;28;20021;-63
2022/09/06 07:28:05;;;;;;;5.68;3.08;;;23.90;90.70;;;;;;5038680;28;20049;-61
2022/09/06 07:30:33;;;;;;;8.05;2.97;;;24.00;90.70;;;;;;5034219;28;20030;-71
2022/09/06 07:32:59;;;;;;;4.70;3.20;;;24.00;90.60;;;;;;5043542;28;20345;-64
2022/09/06 07:35:26;;;;;;;5.93;3.20;;;24.00;90.70;;;;;;5045687;28;20524;-68
2022/09/06 07:37:55;;;;;;;5.88;3.10;;;24.00;90.60;;;;;;5047497;28;20025;-64
2022/09/06 07:40:25;;;;;;;5.75;3.20;;;24.00;90.60;;;;;;5043789;28;20032;-61
2022/09/06 07:42:51;;;;;;;5.72;2.90;;;24.10;90.50;;;;;;5069969;28;20466;-62
2022/09/06 07:45:18;;;;;;;5.60;3.10;;;24.10;90.50;;;;;;5074006;28;20228;-62
2022/09/06 07:47:43;;;;;;;3.70;2.58;;;24.10;90.40;;;;;;5060535;28;20028;-64
2022/09/06 07:50:09;;;;;;;5.97;2.78;;;24.20;90.50;;;;;;5037166;28;20117;-62
2022/09/06 07:52:35;;;;;;;6.32;2.72;;;24.20;90.40;;;;;;5049683;28;20075;-70
2022/09/06 07:55:00;;;;;;;4.07;2.67;;;24.20;90.30;;;;;;5034450;28;20034;-65
2022/09/06 07:57:26;;;;;;;4.10;2.50;;;24.30;90.30;;;;;;5041253;28;20048;-69
2022/09/06 07:59:51;;;;;;;7.13;2.40;;;24.30;90.20;;;;;;5039794;28;20022;-66
2022/09/06 08:02:17;;;;;;;4.90;2.75;;;24.40;90.30;;;;;;5037869;28;20111;-71
2022/09/06 08:04:43;;;;;;;4.72;2.40;;;24.40;90.00;;;;;;5038094;28;20039;-62
2022/09/06 08:07:09;;;;;;;3.33;2.30;;;24.40;90.00;;;;;;5044212;28;20060;-62
2022/09/06 08:09:35;;;;;;;8.48;3.03;;;24.40;90.00;;;;;;5052165;28;20549;-64
2022/09/06 08:12:06;;;;;;;12.00;3.10;;;24.50;90.00;;;;;;5052327;28;20024;-64
2022/09/06 08:14:34;;;;;;;9.05;2.92;;;24.50;90.10;;;;;;5056867;28;20378;-68
2022/09/06 08:17:01;;;;;;;4.60;2.42;;;24.60;89.90;;;;;;5051141;28;20431;-63
2022/09/06 08:19:26;;;;;;;6.68;2.70;;;24.60;89.90;;;;;;5046757;28;20044;-66
2022/09/06 08:21:55;;;;;;;4.82;2.58;;;24.60;89.80;;;;;;5053161;28;20482;-72
2022/09/06 08:24:20;;;;;;;4.60;2.88;;;24.70;89.80;;;;;;5052727;28;20040;-72
2022/09/06 08:26:46;;;;;;;3.97;2.30;;;24.70;90.20;;;;;;5051800;28;20021;-63
2022/09/06 08:29:12;;;;;;;5.45;2.30;;;24.60;89.60;;;;;;5052756;28;20033;-66
2022/09/06 08:31:40;;;;;;;7.97;2.75;;;24.70;89.50;;;;;;5042093;28;20053;-65
2022/09/06 08:34:06;;;;;;;6.43;2.17;;;24.70;89.50;;;;;;5033445;28;20179;-64
2022/09/06 08:36:32;;;;;;;4.22;2.28;;;24.80;89.40;;;;;;5051228;28;20028;-63
2022/09/06 08:39:03;;;;;;;4.63;2.28;;;24.80;89.30;;;;;;5052727;28;20036;-68
2022/09/06 08:41:50;;;;;;;3.83;2.60;;;24.80;89.20;;;;;;5051989;28;20059;-62
2022/09/06 08:44:25;;;;;;;4.47;2.15;;;24.80;89.30;;;;;;5049022;28;20037;-62
2022/09/06 08:46:54;;;;;;;5.97;2.22;;;24.80;89.30;;;;;;5049877;28;20371;-67
2022/09/06 08:49:20;;;;;;;6.63;1.88;;;24.90;89.10;;;;;;5044566;28;20051;-63
2022/09/06 08:51:58;;;;;;;4.20;2.03;;;24.90;89.10;;;;;;5041700;28;20379;-62
2022/09/06 08:54:39;;;;;;;5.03;2.10;;;24.90;89.10;;;;;;5052148;28;20040;-62
2022/09/06 08:57:23;;;;;;;5.45;2.53;;;24.90;89.10;;;;;;5033013;28;20466;-61
2022/09/06 08:59:53;;;;;;;5.10;2.30;;;24.90;89.10;;;;;;5045000;28;20025;-62
2022/09/06 09:02:20;;;;;;;4.15;2.60;;;24.90;89.20;;;;;;5051986;28;20474;-62
2022/09/06 09:04:53;;;;;;;5.63;2.40;;;24.90;89.00;;;;;;5042514;28;20033;-62
2022/09/06 09:07:45;;;;;;;4.05;2.28;;;24.90;89.10;;;;;;5036233;28;20048;-62
2022/09/06 09:10:20;;;;;;;;;;;25.00;89.20;;;;;;5050436;28;20032;-62
2022/09/06 09:12:47;;;;;;;5.40;2.05;;;25.10;88.90;;;;;;5052149;28;20380;-62
2022/09/06 09:15:16;;;;;;;5.20;2.13;;;25.00;88.90;;;;;;5051478;28;20482;-62
2022/09/06 09:17:43;;;;;;;3.65;2.35;;;25.00;89.00;;;;;;5041485;28;20147;-65
2022/09/06 09:20:09;;;;;;;4.18;2.10;;;25.00;89.00;;;;;;5052498;28;20498;-63
2022/09/06 09:22:36;;;;;;;3.63;2.22;;;25.10;89.10;;;;;;5050078;28;20034;-64
2022/09/06 09:25:04;;;;;;;3.25;2.00;;;25.10;89.20;;;;;;5032736;28;20095;-61
2022/09/06 09:27:32;;;;;;;3.70;1.92;;;25.00;89.30;;;;;;5049842;28;20355;-62
2022/09/06 09:30:00;;;;;;;5.07;2.05;;;25.10;89.40;;;;;;5051568;28;20355;-61
2022/09/06 09:32:35;;;;;;;3.90;2.05;;;25.10;89.70;;;;;;5052503;28;20029;-62
2022/09/06 09:35:31;;;;;;;3.20;2.08;;;25.10;89.60;;;;;;5051804;28;20025;-63
2022/09/06 09:38:07;;;;;;;3.72;1.80;;;25.10;89.70;;;;;;5052116;28;20438;-62
2022/09/06 09:40:37;;;;;;;5.40;2.10;;;25.10;89.70;;;;;;5047171;28;20029;-62
2022/09/06 09:43:19;;;;;;;4.97;2.20;;;25.10;89.50;;;;;;5051410;28;20096;-62
2022/09/06 09:45:55;;;;;;;6.93;2.03;;;25.10;89.30;;;;;;5041448;28;20367;-62
2022/09/06 09:48:26;;;;;;;4.82;1.85;;;25.20;89.50;;;;;;5032265;28;20509;-66
2022/09/06 09:50:52;;;;;;;3.88;1.92;;;25.20;89.30;;;;;;5031430;28;21419;-67
2022/09/06 09:53:21;;;;;;;4.07;1.88;;;25.20;89.80;;;;;;5046994;28;20053;-63
2022/09/06 09:55:48;;;;;;;5.63;1.90;;;25.10;89.70;;;;;;5046512;28;20036;-64
2022/09/06 09:58:28;;;;;;;4.50;1.88;;;25.20;89.60;;;;;;5031283;28;20123;-64
2022/09/06 10:01:14;;;;;;;4.32;1.60;;;25.20;89.80;;;;;;5040471;28;20489;-71
2022/09/06 10:03:40;;;;;;;4.53;2.20;;;25.20;89.70;;;;;;5046587;28;20037;-70
2022/09/06 10:06:10;;;;;;;4.72;1.90;;;25.20;89.30;;;;;;5051967;28;20031;-68
2022/09/06 10:08:41;;;;;;;5.72;2.00;;;25.30;89.20;;;;;;5051670;28;20047;-66
2022/09/06 10:11:10;;;;;;;3.22;1.55;;;25.30;88.90;;;;;;5051852;28;20033;-70
2022/09/06 10:13:35;;;;;;;2.75;1.30;;;25.30;88.60;;;;;;5033421;28;20505;-66
2022/09/06 10:16:04;;;;;;;3.33;1.70;;;25.30;88.40;;;;;;5050025;28;20037;-69
2022/09/06 10:18:32;;;;;;;5.20;1.85;;;25.30;88.40;;;;;;5055814;28;20031;-64
2022/09/06 10:21:11;;;;;;;3.03;1.70;;;25.30;88.50;;;;;;5055444;28;20108;-69
2022/09/06 10:24:03;;;;;;;3.67;1.60;;;25.30;88.60;;;;;;5054864;28;20037;-68
2022/09/06 10:26:38;;;;;;;4.35;1.80;;;25.30;88.40;;;;;;5027934;28;20042;-70
2022/09/06 10:29:08;;;;;;;4.72;1.70;;;25.40;88.20;;;;;;5047152;28;20470;-65
2022/09/06 10:31:52;;;;;;;4.50;1.60;;;25.40;88.10;;;;;;5055340;28;20020;-71
2022/09/06 10:34:39;;;;;;;4.35;1.52;;;25.40;87.80;;;;;;5056070;28;20036;-70
2022/09/06 10:37:22;;;;;;;4.05;1.73;;;25.40;87.70;;;;;;5047666;28;20112;-68
2022/09/06 10:39:55;;;;;;;6.43;2.08;;;25.50;87.70;;;;;;5035117;28;20445;-69
2022/09/06 10:42:37;;;;;;;1.88;1.15;;;25.40;87.60;;;;;;5035153;28;20339;-71
2022/09/06 10:45:28;;;;;;;4.85;1.67;;;25.40;87.60;;;;;;5043389;28;20083;-69
2022/09/06 10:48:03;;;;;;;3.30;1.30;;;25.40;87.40;;;;;;5047845;28;20045;-70
2022/09/06 10:50:34;;;;;;;4.63;1.65;;;25.50;87.20;;;;;;5054875;28;20021;-70
2022/09/06 10:53:33;;;;;;;3.15;1.38;;;25.50;86.90;;;;;;5052910;28;20545;-71
2022/09/06 10:56:07;;;;;;;3.30;1.30;;;25.50;86.80;;;;;;5037076;28;20128;-70
2022/09/06 10:58:42;;;;;;;6.63;1.70;;;25.50;86.70;;;;;;5054749;28;20108;-71
2022/09/06 11:01:36;;;;;;;3.83;1.40;;;25.50;86.50;;;;;;5049765;28;20036;-68
2022/09/06 11:04:08;;;;;;;3.45;1.45;;;25.50;86.60;;;;;;5035308;28;20080;-70
2022/09/06 11:06:42;;;;;;;3.45;1.30;;;25.60;86.50;;;;;;5041420;28;20028;-68
2022/09/06 11:09:28;;;;;;;3.72;1.20;;;25.60;86.40;;;;;;5050975;28;20033;-71
2022/09/06 11:12:06;;;;;;;14.38;1.90;;;25.50;86.20;;;;;;5042044;28;20021;-65
2022/09/06 11:14:34;;;;;;;4.50;1.67;;;25.60;86.10;;;;;;5033781;28;20025;-67
2022/09/06 11:17:07;;;;;;;4.25;1.92;;;25.60;86.00;;;;;;5044724;28;20025;-70
2022/09/06 11:20:06;;;;;;;2.78;1.23;;;25.70;85.80;;;;;;5049655;28;20025;-70
2022/09/06 11:22:32;;;;;;;6.13;1.30;;;25.70;85.70;;;;;;5046183;28;20055;-68
2022/09/06 11:25:33;;;;;;;4.57;1.10;;;25.70;85.50;;;;;;5052752;28;20041;-70
2022/09/06 11:28:01;;;;;;;7.63;1.55;;;25.70;85.40;;;;;;5054198;28;20055;-71
2022/09/06 11:30:28;;;;;;;3.20;1.27;;;25.70;85.20;;;;;;5047299;28;20041;-70
2022/09/06 11:33:23;;;;;;;8.52;1.58;;;25.70;85.30;;;;;;5033225;28;20486;-67
2022/09/06 11:35:49;;;;;;;5.57;1.63;;;25.70;85.40;;;;;;5036488;28;20494;-71
2022/09/06 11:38:14;;;;;;;4.28;1.50;;;25.70;85.80;;;;;;5036456;28;20086;-70
2022/09/06 11:40:43;;;;;;;4.07;1.40;;;25.70;86.00;;;;;;5035768;28;20037;-67
2022/09/06 11:43:48;;;;;;;6.78;1.38;;;25.70;85.90;;;;;;5070879;28;20066;-70
2022/09/06 11:46:32;;;;;;;4.28;1.10;;;25.70;86.60;;;;;;5049698;28;20036;-71
2022/09/06 11:49:05;;;;;;;3.03;1.33;;;25.70;86.00;;;;;;5044135;28;20036;-70
2022/09/06 11:51:39;;;;;;;3.67;1.35;;;25.80;85.90;;;;;;5041538;28;20020;-71
2022/09/06 11:54:14;;;;;;;4.18;1.60;;;25.80;85.70;;;;;;5062843;28;20400;-70
2022/09/06 11:56:58;;;;;;;3.97;1.20;;;25.80;85.80;;;;;;5067632;28;20025;-71
2022/09/06 11:59:46;;;;;;;3.35;1.60;;;25.80;86.00;;;;;;5037795;28;20064;-71
2022/09/06 12:02:32;;;;;;;7.93;2.17;;;25.80;85.90;;;;;;5050677;28;20479;-69
2022/09/06 12:04:57;;;;;;;5.20;1.40;;;25.90;85.90;;;;;;5044043;28;20561;-67
2022/09/06 12:07:23;;;;;;;6.68;2.10;;;25.90;85.20;;;;;;5037256;28;20057;-70
2022/09/06 12:09:50;;;;;;;4.28;1.58;;;26.00;84.10;;;;;;5043755;28;20025;-69
2022/09/06 12:12:37;;;;;;;3.17;1.40;;;26.00;82.50;;;;;;5033635;28;20053;-70
2022/09/06 12:15:22;;;;;;;8.57;1.65;;;26.00;84.50;;;;;;5050864;28;20074;-70
2022/09/06 12:17:48;;;;;;;4.40;1.52;;;25.90;85.00;;;;;;5047411;28;20029;-71
2022/09/06 12:20:50;;;;;;;5.63;1.55;;;25.90;85.00;;;;;;5039380;28;20064;-70
2022/09/06 12:23:33;;;;;;;4.70;1.70;;;25.90;85.00;;;;;;5041226;28;20389;-71
2022/09/06 12:26:00;;;;;;;4.30;1.40;;;25.90;84.80;;;;;;5042043;28;20091;-70
2022/09/06 12:28:33;;;;;;;6.68;1.10;;;25.90;84.70;;;;;;5052822;28;20021;-71
2022/09/06 12:31:00;;;;;;;4.35;1.33;;;25.90;84.60;;;;;;5047037;28;20454;-71
2022/09/06 12:33:35;;;;;;;3.67;0.93;;;25.90;84.40;;;;;;5053167;28;20029;-71
2022/09/06 12:36:29;;;;;;;3.80;1.40;;;26.00;84.30;;;;;;5052441;28;20025;-71
2022/09/06 12:39:07;;;;;;;5.40;1.10;;;26.00;84.00;;;;;;5045905;28;20040;-71
2022/09/06 12:41:39;;;;;;;1.75;0.88;;;26.00;83.80;;;;;;5052468;28;20032;-68
2022/09/06 12:44:06;;;;;;;7.53;1.33;;;26.00;83.80;;;;;;5052709;28;20083;-71
2022/09/06 12:46:32;;;;;;;5.13;1.10;;;26.00;84.60;;;;;;5050822;28;20021;-70
2022/09/06 12:49:06;;;;;;;4.30;1.10;;;26.00;83.60;;;;;;5041928;28;20124;-67
2022/09/06 12:51:33;;;;;;;2.40;1.02;;;26.00;83.20;;;;;;5049797;28;20036;-70
2022/09/06 12:54:03;;;;;;;2.13;1.00;;;26.10;83.20;;;;;;5045558;28;20072;-71
2022/09/06 12:56:31;;;;;;;3.35;1.08;;;26.10;83.00;;;;;;5047845;28;20021;-71
2022/09/06 12:59:31;;;;;;;6.07;1.05;;;26.10;82.80;;;;;;5047070;28;20129;-71
2022/09/06 13:02:02;;;;;;;2.20;0.95;;;26.10;82.90;;;;;;5019427;28;20130;-71
2022/09/06 13:04:34;;;;;;;2.95;1.00;;;26.10;82.80;;;;;;5045517;28;20048;-70